sensor_id;sensor_type;location;lat;lon;timestamp;temperature;humidity
25568;DHT22;13455;51.480;7.594;2022-12-29T00:01:52;9.70;99.90
25568;DHT22;13455;51.480;7.594;2022-12-29T00:04:18;9.70;99.90
25568;DHT22;13455;51.480;7.594;2022-12-29T00:06:44;9.70;99.90
25568;DHT22;13455;51.480;7.594;2022-12-29T00:09:14;9.70;99.90
25568;DHT22;13455;51.480;7.594;2022-12-29T00:11:40;9.70;99.90
25568;DHT22;13455;51.480;7.594;2022-12-29T00:14:08;9.70;99.90
25568;DHT22;13455;51.480;7.594;2022-12-29T00:16:53;9.70;99.90
25568;DHT22;13455;51.480;7.594;2022-12-29T00:19:19;9.80;99.90
25568;DHT22;13455;51.480;7.594;2022-12-29T00:22:03;9.80;99.90
25568;DHT22;13455;51.480;7.594;2022-12-29T00:24:48;9.80;99.90
25568;DHT22;13455;51.480;7.594;2022-12-29T00:27:26;9.90;99.90
25568;DHT22;13455;51.480;7.594;2022-12-29T00:30:13;9.90;99.90
25568;DHT22;13455;51.480;7.594;2022-12-29T00:32:57;9.90;99.90
25568;DHT22;13455;51.480;7.594;2022-12-29T00:35:53;10.00;99.90
25568;DHT22;13455;51.480;7.594;2022-12-29T00:38:19;10.00;99.90
25568;DHT22;13455;51.480;7.594;2022-12-29T00:41:05;10.00;99.90
25568;DHT22;13455;51.480;7.594;2022-12-29T00:43:49;10.10;99.90
25568;DHT22;13455;51.480;7.594;2022-12-29T00:46:40;10.30;99.90
25568;DHT22;13455;51.480;7.594;2022-12-29T00:49:07;10.00;99.90
25568;DHT22;13455;51.480;7.594;2022-12-29T00:51:52;10.10;99.90
25568;DHT22;13455;51.480;7.594;2022-12-29T00:54:18;10.10;99.90
25568;DHT22;13455;51.480;7.594;2022-12-29T00:56:47;10.20;99.90
25568;DHT22;13455;51.480;7.594;2022-12-29T00:59:13;10.20;99.90
25568;DHT22;13455;51.480;7.594;2022-12-29T01:01:39;10.20;99.90
25568;DHT22;13455;51.480;7.594;2022-12-29T01:04:05;10.10;99.90
25568;DHT22;13455;51.480;7.594;2022-12-29T01:06:32;10.20;99.90
25568;DHT22;13455;51.480;7.594;2022-12-29T01:08:58;10.30;99.90
25568;DHT22;13455;51.480;7.594;2022-12-29T01:11:42;10.20;99.90
25568;DHT22;13455;51.480;7.594;2022-12-29T01:14:08;10.20;99.90
25568;DHT22;13455;51.480;7.594;2022-12-29T01:16:33;10.20;99.90
25568;DHT22;13455;51.480;7.594;2022-12-29T01:18:59;10.20;99.90
25568;DHT22;13455;51.480;7.594;2022-12-29T01:21:25;10.20;99.90
25568;DHT22;13455;51.480;7.594;2022-12-29T01:23:51;10.20;99.90
25568;DHT22;13455;51.480;7.594;2022-12-29T01:26:17;10.20;99.90
25568;DHT22;13455;51.480;7.594;2022-12-29T01:28:44;10.20;99.90
25568;DHT22;13455;51.480;7.594;2022-12-29T01:31:11;10.20;99.90
25568;DHT22;13455;51.480;7.594;2022-12-29T01:33:38;10.40;99.90
25568;DHT22;13455;51.480;7.594;2022-12-29T01:36:06;10.20;99.90
25568;DHT22;13455;51.480;7.594;2022-12-29T01:38:32;10.20;99.90
25568;DHT22;13455;51.480;7.594;2022-12-29T01:41:00;10.20;99.90
25568;DHT22;13455;51.480;7.594;2022-12-29T01:43:54;10.20;99.90
25568;DHT22;13455;51.480;7.594;2022-12-29T01:46:38;10.20;99.90
25568;DHT22;13455;51.480;7.594;2022-12-29T01:49:12;10.20;99.90
25568;DHT22;13455;51.480;7.594;2022-12-29T01:51:45;10.30;99.90
25568;DHT22;13455;51.480;7.594;2022-12-29T01:54:17;10.20;99.90
25568;DHT22;13455;51.480;7.594;2022-12-29T01:56:43;10.20;99.90
25568;DHT22;13455;51.480;7.594;2022-12-29T01:59:14;10.20;99.90
25568;DHT22;13455;51.480;7.594;2022-12-29T02:01:41;10.30;99.90
25568;DHT22;13455;51.480;7.594;2022-12-29T02:04:09;10.30;99.90
25568;DHT22;13455;51.480;7.594;2022-12-29T02:06:47;10.30;99.90
25568;DHT22;13455;51.480;7.594;2022-12-29T02:09:15;10.30;99.90
25568;DHT22;13455;51.480;7.594;2022-12-29T02:11:40;10.40;99.90
25568;DHT22;13455;51.480;7.594;2022-12-29T02:14:10;10.30;99.90
25568;DHT22;13455;51.480;7.594;2022-12-29T02:25:09;10.40;99.90
25568;DHT22;13455;51.480;7.594;2022-12-29T02:31:07;10.50;99.90
25568;DHT22;13455;51.480;7.594;2022-12-29T02:33:55;10.50;99.90
25568;DHT22;13455;51.480;7.594;2022-12-29T02:36:48;10.50;99.90
25568;DHT22;13455;51.480;7.594;2022-12-29T02:42:14;10.60;99.90
25568;DHT22;13455;51.480;7.594;2022-12-29T02:45:27;10.50;99.90
25568;DHT22;13455;51.480;7.594;2022-12-29T02:48:08;10.50;99.90
25568;DHT22;13455;51.480;7.594;2022-12-29T02:53:26;10.50;99.90
25568;DHT22;13455;51.480;7.594;2022-12-29T02:56:12;10.50;99.90
25568;DHT22;13455;51.480;7.594;2022-12-29T02:58:37;10.30;99.90
25568;DHT22;13455;51.480;7.594;2022-12-29T03:09:23;10.50;99.90
25568;DHT22;13455;51.480;7.594;2022-12-29T03:12:00;10.50;99.90
25568;DHT22;13455;51.480;7.594;2022-12-29T03:14:49;10.60;99.90
25568;DHT22;13455;51.480;7.594;2022-12-29T03:20:11;10.50;99.90
25568;DHT22;13455;51.480;7.594;2022-12-29T03:22:43;10.50;99.90
25568;DHT22;13455;51.480;7.594;2022-12-29T03:25:21;10.60;99.90
25568;DHT22;13455;51.480;7.594;2022-12-29T03:27:55;10.60;99.90
25568;DHT22;13455;51.480;7.594;2022-12-29T03:30:22;10.60;99.90
25568;DHT22;13455;51.480;7.594;2022-12-29T03:32:55;11.00;99.90
25568;DHT22;13455;51.480;7.594;2022-12-29T03:35:23;10.90;99.90
25568;DHT22;13455;51.480;7.594;2022-12-29T03:37:58;10.70;99.90
25568;DHT22;13455;51.480;7.594;2022-12-29T03:40:26;10.60;99.90
25568;DHT22;13455;51.480;7.594;2022-12-29T03:42:53;10.70;99.90
25568;DHT22;13455;51.480;7.594;2022-12-29T03:45:20;10.70;99.90
25568;DHT22;13455;51.480;7.594;2022-12-29T03:47:46;10.50;99.90
25568;DHT22;13455;51.480;7.594;2022-12-29T03:50:12;10.60;99.90
25568;DHT22;13455;51.480;7.594;2022-12-29T03:52:38;10.60;99.90
25568;DHT22;13455;51.480;7.594;2022-12-29T03:55:04;10.50;99.90
25568;DHT22;13455;51.480;7.594;2022-12-29T03:57:30;10.50;99.90
25568;DHT22;13455;51.480;7.594;2022-12-29T03:59:56;10.50;99.90
25568;DHT22;13455;51.480;7.594;2022-12-29T04:02:21;10.50;99.90
25568;DHT22;13455;51.480;7.594;2022-12-29T04:04:47;10.40;99.90
25568;DHT22;13455;51.480;7.594;2022-12-29T04:07:12;10.40;99.90
25568;DHT22;13455;51.480;7.594;2022-12-29T04:09:38;10.60;99.90
25568;DHT22;13455;51.480;7.594;2022-12-29T04:12:04;10.40;99.90
25568;DHT22;13455;51.480;7.594;2022-12-29T04:14:29;10.40;99.90
25568;DHT22;13455;51.480;7.594;2022-12-29T04:16:55;10.50;99.90
25568;DHT22;13455;51.480;7.594;2022-12-29T04:19:20;10.40;99.90
25568;DHT22;13455;51.480;7.594;2022-12-29T04:21:46;10.40;99.90
25568;DHT22;13455;51.480;7.594;2022-12-29T04:24:12;10.40;99.90
25568;DHT22;13455;51.480;7.594;2022-12-29T04:26:38;10.40;99.90
25568;DHT22;13455;51.480;7.594;2022-12-29T04:29:03;10.60;99.90
25568;DHT22;13455;51.480;7.594;2022-12-29T04:31:29;10.60;99.90
25568;DHT22;13455;51.480;7.594;2022-12-29T04:33:55;10.50;99.90
25568;DHT22;13455;51.480;7.594;2022-12-29T04:36:22;10.40;99.90
25568;DHT22;13455;51.480;7.594;2022-12-29T04:38:48;10.40;99.90
25568;DHT22;13455;51.480;7.594;2022-12-29T04:41:14;10.20;99.90
25568;DHT22;13455;51.480;7.594;2022-12-29T04:43:39;10.30;99.90
25568;DHT22;13455;51.480;7.594;2022-12-29T04:46:05;10.60;99.90
25568;DHT22;13455;51.480;7.594;2022-12-29T04:48:31;10.70;99.90
25568;DHT22;13455;51.480;7.594;2022-12-29T04:50:57;10.60;99.90
25568;DHT22;13455;51.480;7.594;2022-12-29T04:53:23;10.40;99.90
25568;DHT22;13455;51.480;7.594;2022-12-29T04:55:50;10.40;99.90
25568;DHT22;13455;51.480;7.594;2022-12-29T04:58:16;10.30;99.90
25568;DHT22;13455;51.480;7.594;2022-12-29T05:00:42;10.50;99.90
25568;DHT22;13455;51.480;7.594;2022-12-29T05:03:08;10.50;99.90
25568;DHT22;13455;51.480;7.594;2022-12-29T05:05:33;10.60;99.90
25568;DHT22;13455;51.480;7.594;2022-12-29T05:07:59;10.40;99.90
25568;DHT22;13455;51.480;7.594;2022-12-29T05:10:25;10.50;99.90
25568;DHT22;13455;51.480;7.594;2022-12-29T05:12:51;10.70;99.90
25568;DHT22;13455;51.480;7.594;2022-12-29T05:15:16;10.50;99.90
25568;DHT22;13455;51.480;7.594;2022-12-29T05:17:42;10.60;99.90
25568;DHT22;13455;51.480;7.594;2022-12-29T05:20:08;10.40;99.90
25568;DHT22;13455;51.480;7.594;2022-12-29T05:22:34;10.60;99.90
25568;DHT22;13455;51.480;7.594;2022-12-29T05:24:59;10.60;99.90
25568;DHT22;13455;51.480;7.594;2022-12-29T05:27:25;10.90;99.90
25568;DHT22;13455;51.480;7.594;2022-12-29T05:29:50;11.10;99.90
25568;DHT22;13455;51.480;7.594;2022-12-29T05:32:16;10.70;99.90
25568;DHT22;13455;51.480;7.594;2022-12-29T05:34:42;10.80;99.90
25568;DHT22;13455;51.480;7.594;2022-12-29T05:37:07;10.80;99.90
25568;DHT22;13455;51.480;7.594;2022-12-29T05:39:33;10.80;99.90
25568;DHT22;13455;51.480;7.594;2022-12-29T05:44:24;10.90;99.90
25568;DHT22;13455;51.480;7.594;2022-12-29T05:46:50;10.90;99.90
25568;DHT22;13455;51.480;7.594;2022-12-29T05:49:16;10.90;99.90
25568;DHT22;13455;51.480;7.594;2022-12-29T05:51:42;10.90;99.90
25568;DHT22;13455;51.480;7.594;2022-12-29T05:54:08;11.20;99.90
25568;DHT22;13455;51.480;7.594;2022-12-29T05:56:33;11.20;99.90
25568;DHT22;13455;51.480;7.594;2022-12-29T05:58:59;11.40;99.90
25568;DHT22;13455;51.480;7.594;2022-12-29T06:01:24;11.50;99.90
25568;DHT22;13455;51.480;7.594;2022-12-29T06:08:42;11.10;99.90
25568;DHT22;13455;51.480;7.594;2022-12-29T06:11:07;11.10;99.90
25568;DHT22;13455;51.480;7.594;2022-12-29T06:13:33;12.50;99.90
25568;DHT22;13455;51.480;7.594;2022-12-29T06:18:25;11.20;99.90
25568;DHT22;13455;51.480;7.594;2022-12-29T06:20:50;11.10;99.90
25568;DHT22;13455;51.480;7.594;2022-12-29T06:23:16;11.00;99.90
25568;DHT22;13455;51.480;7.594;2022-12-29T06:25:43;11.20;99.90
25568;DHT22;13455;51.480;7.594;2022-12-29T06:28:09;11.00;99.90
25568;DHT22;13455;51.480;7.594;2022-12-29T06:30:36;11.40;99.90
25568;DHT22;13455;51.480;7.594;2022-12-29T06:33:01;11.00;99.90
25568;DHT22;13455;51.480;7.594;2022-12-29T06:35:27;11.10;99.90
25568;DHT22;13455;51.480;7.594;2022-12-29T06:40:19;11.20;99.90
25568;DHT22;13455;51.480;7.594;2022-12-29T06:47:37;11.10;99.90
25568;DHT22;13455;51.480;7.594;2022-12-29T06:50:03;11.30;99.90
25568;DHT22;13455;51.480;7.594;2022-12-29T06:52:29;11.10;99.90
25568;DHT22;13455;51.480;7.594;2022-12-29T06:57:21;11.20;99.90
25568;DHT22;13455;51.480;7.594;2022-12-29T06:59:47;11.20;99.90
25568;DHT22;13455;51.480;7.594;2022-12-29T07:02:13;11.20;99.90
25568;DHT22;13455;51.480;7.594;2022-12-29T07:04:44;11.20;99.90
25568;DHT22;13455;51.480;7.594;2022-12-29T07:07:10;11.20;99.90
25568;DHT22;13455;51.480;7.594;2022-12-29T07:09:36;11.10;99.90
25568;DHT22;13455;51.480;7.594;2022-12-29T07:12:01;11.20;99.90
25568;DHT22;13455;51.480;7.594;2022-12-29T07:14:27;11.10;99.90
25568;DHT22;13455;51.480;7.594;2022-12-29T07:16:52;11.30;99.90
25568;DHT22;13455;51.480;7.594;2022-12-29T07:19:18;11.10;99.90
25568;DHT22;13455;51.480;7.594;2022-12-29T07:21:44;11.10;99.90
25568;DHT22;13455;51.480;7.594;2022-12-29T07:24:09;11.20;99.90
25568;DHT22;13455;51.480;7.594;2022-12-29T07:26:35;11.10;99.90
25568;DHT22;13455;51.480;7.594;2022-12-29T07:29:02;11.10;99.90
25568;DHT22;13455;51.480;7.594;2022-12-29T07:31:28;11.10;99.90
25568;DHT22;13455;51.480;7.594;2022-12-29T07:33:54;11.00;99.90
25568;DHT22;13455;51.480;7.594;2022-12-29T07:36:19;11.00;99.90
25568;DHT22;13455;51.480;7.594;2022-12-29T07:38:45;11.10;99.90
25568;DHT22;13455;51.480;7.594;2022-12-29T07:41:11;11.10;99.90
25568;DHT22;13455;51.480;7.594;2022-12-29T07:43:36;11.00;99.90
25568;DHT22;13455;51.480;7.594;2022-12-29T07:46:02;11.00;99.90
25568;DHT22;13455;51.480;7.594;2022-12-29T07:48:27;11.00;99.90
25568;DHT22;13455;51.480;7.594;2022-12-29T07:50:53;11.00;99.90
25568;DHT22;13455;51.480;7.594;2022-12-29T07:53:19;11.20;99.90
25568;DHT22;13455;51.480;7.594;2022-12-29T07:55:45;11.00;99.90
25568;DHT22;13455;51.480;7.594;2022-12-29T07:58:10;11.00;99.90
25568;DHT22;13455;51.480;7.594;2022-12-29T08:00:37;11.00;99.90
25568;DHT22;13455;51.480;7.594;2022-12-29T08:03:03;10.90;99.90
25568;DHT22;13455;51.480;7.594;2022-12-29T08:05:31;10.90;99.90
25568;DHT22;13455;51.480;7.594;2022-12-29T08:07:56;10.90;99.90
25568;DHT22;13455;51.480;7.594;2022-12-29T08:10:22;10.90;99.90
25568;DHT22;13455;51.480;7.594;2022-12-29T08:12:48;10.90;99.90
25568;DHT22;13455;51.480;7.594;2022-12-29T08:15:13;10.90;99.90
25568;DHT22;13455;51.480;7.594;2022-12-29T08:17:39;10.90;99.90
25568;DHT22;13455;51.480;7.594;2022-12-29T08:20:05;10.80;99.90
25568;DHT22;13455;51.480;7.594;2022-12-29T08:22:31;10.90;99.90
25568;DHT22;13455;51.480;7.594;2022-12-29T08:24:56;10.80;99.90
25568;DHT22;13455;51.480;7.594;2022-12-29T08:27:22;10.80;99.90
25568;DHT22;13455;51.480;7.594;2022-12-29T08:29:48;10.90;99.90
25568;DHT22;13455;51.480;7.594;2022-12-29T08:32:14;11.10;99.90
25568;DHT22;13455;51.480;7.594;2022-12-29T08:34:39;10.80;99.90
25568;DHT22;13455;51.480;7.594;2022-12-29T08:37:05;10.80;99.90
25568;DHT22;13455;51.480;7.594;2022-12-29T08:39:30;11.20;99.90
25568;DHT22;13455;51.480;7.594;2022-12-29T08:41:56;10.90;99.90
25568;DHT22;13455;51.480;7.594;2022-12-29T08:44:22;10.90;99.90
25568;DHT22;13455;51.480;7.594;2022-12-29T08:46:48;10.90;99.90
25568;DHT22;13455;51.480;7.594;2022-12-29T08:49:13;10.80;99.90
25568;DHT22;13455;51.480;7.594;2022-12-29T08:51:39;10.90;99.90
25568;DHT22;13455;51.480;7.594;2022-12-29T08:54:05;10.90;99.90
25568;DHT22;13455;51.480;7.594;2022-12-29T08:56:31;10.90;99.90
25568;DHT22;13455;51.480;7.594;2022-12-29T08:58:56;11.00;99.90
25568;DHT22;13455;51.480;7.594;2022-12-29T09:01:22;10.90;99.90
25568;DHT22;13455;51.480;7.594;2022-12-29T09:03:48;10.90;99.90
25568;DHT22;13455;51.480;7.594;2022-12-29T09:06:16;11.00;99.90
25568;DHT22;13455;51.480;7.594;2022-12-29T09:08:42;11.00;99.90
25568;DHT22;13455;51.480;7.594;2022-12-29T09:11:10;11.00;99.90
25568;DHT22;13455;51.480;7.594;2022-12-29T09:13:36;11.00;99.90
25568;DHT22;13455;51.480;7.594;2022-12-29T09:16:02;11.00;99.90
25568;DHT22;13455;51.480;7.594;2022-12-29T09:18:28;10.90;99.90
25568;DHT22;13455;51.480;7.594;2022-12-29T09:20:58;10.90;99.90
25568;DHT22;13455;51.480;7.594;2022-12-29T09:23:24;10.80;99.90
25568;DHT22;13455;51.480;7.594;2022-12-29T09:25:49;10.70;99.90
25568;DHT22;13455;51.480;7.594;2022-12-29T09:28:15;10.60;99.90
25568;DHT22;13455;51.480;7.594;2022-12-29T09:30:41;10.70;99.90
25568;DHT22;13455;51.480;7.594;2022-12-29T09:33:07;10.50;99.90
25568;DHT22;13455;51.480;7.594;2022-12-29T09:35:33;10.40;99.90
25568;DHT22;13455;51.480;7.594;2022-12-29T09:37:58;10.40;99.90
25568;DHT22;13455;51.480;7.594;2022-12-29T09:40:32;10.40;99.90
25568;DHT22;13455;51.480;7.594;2022-12-29T09:43:22;10.30;99.90
25568;DHT22;13455;51.480;7.594;2022-12-29T09:46:23;10.30;99.90
25568;DHT22;13455;51.480;7.594;2022-12-29T09:49:06;10.30;99.90
25568;DHT22;13455;51.480;7.594;2022-12-29T09:51:36;10.30;99.90
25568;DHT22;13455;51.480;7.594;2022-12-29T09:56:53;10.30;99.90
25568;DHT22;13455;51.480;7.594;2022-12-29T09:59:22;10.30;99.90
25568;DHT22;13455;51.480;7.594;2022-12-29T10:02:03;10.40;99.90
25568;DHT22;13455;51.480;7.594;2022-12-29T10:04:30;10.40;99.90
25568;DHT22;13455;51.480;7.594;2022-12-29T10:18:48;10.50;99.90
25568;DHT22;13455;51.480;7.594;2022-12-29T10:24:19;10.50;99.90
25568;DHT22;13455;51.480;7.594;2022-12-29T10:26:48;10.50;99.90
25568;DHT22;13455;51.480;7.594;2022-12-29T10:29:19;10.60;99.90
25568;DHT22;13455;51.480;7.594;2022-12-29T10:31:56;10.60;99.90
25568;DHT22;13455;51.480;7.594;2022-12-29T10:34:28;10.70;99.90
25568;DHT22;13455;51.480;7.594;2022-12-29T10:37:00;10.70;99.90
25568;DHT22;13455;51.480;7.594;2022-12-29T10:39:36;10.90;99.90
25568;DHT22;13455;51.480;7.594;2022-12-29T10:42:11;10.80;99.90
25568;DHT22;13455;51.480;7.594;2022-12-29T10:44:38;11.10;99.90
25568;DHT22;13455;51.480;7.594;2022-12-29T10:47:09;10.80;99.90
25568;DHT22;13455;51.480;7.594;2022-12-29T10:49:40;10.90;99.90
25568;DHT22;13455;51.480;7.594;2022-12-29T10:52:08;10.90;99.90
25568;DHT22;13455;51.480;7.594;2022-12-29T10:57:40;11.00;99.90
25568;DHT22;13455;51.480;7.594;2022-12-29T11:00:14;11.10;99.90
25568;DHT22;13455;51.480;7.594;2022-12-29T11:07:50;11.20;99.90
25568;DHT22;13455;51.480;7.594;2022-12-29T11:13:24;11.20;99.90
25568;DHT22;13455;51.480;7.594;2022-12-29T11:15:51;11.20;99.90
25568;DHT22;13455;51.480;7.594;2022-12-29T11:18:31;11.20;99.90
25568;DHT22;13455;51.480;7.594;2022-12-29T11:21:00;11.20;99.90
25568;DHT22;13455;51.480;7.594;2022-12-29T11:26:25;11.20;99.90
25568;DHT22;13455;51.480;7.594;2022-12-29T11:36:35;11.20;99.90
25568;DHT22;13455;51.480;7.594;2022-12-29T11:39:01;11.20;99.90
25568;DHT22;13455;51.480;7.594;2022-12-29T11:41:31;11.20;99.90
25568;DHT22;13455;51.480;7.594;2022-12-29T11:43:59;11.20;99.90
25568;DHT22;13455;51.480;7.594;2022-12-29T11:46:29;11.30;99.90
25568;DHT22;13455;51.480;7.594;2022-12-29T11:48:57;11.20;99.90
25568;DHT22;13455;51.480;7.594;2022-12-29T11:51:35;11.20;99.90
25568;DHT22;13455;51.480;7.594;2022-12-29T11:54:03;11.10;99.90
25568;DHT22;13455;51.480;7.594;2022-12-29T11:56:38;11.20;99.90
25568;DHT22;13455;51.480;7.594;2022-12-29T12:05:23;11.20;99.90
25568;DHT22;13455;51.480;7.594;2022-12-29T12:08:01;11.20;99.90
25568;DHT22;13455;51.480;7.594;2022-12-29T12:13:38;11.20;99.90
25568;DHT22;13455;51.480;7.594;2022-12-29T12:16:12;11.20;99.90
25568;DHT22;13455;51.480;7.594;2022-12-29T12:18:44;11.20;99.90
25568;DHT22;13455;51.480;7.594;2022-12-29T12:26:42;11.10;99.90
25568;DHT22;13455;51.480;7.594;2022-12-29T12:30:02;11.20;99.90
25568;DHT22;13455;51.480;7.594;2022-12-29T12:35:16;11.20;99.90
25568;DHT22;13455;51.480;7.594;2022-12-29T12:37:52;11.20;99.90
25568;DHT22;13455;51.480;7.594;2022-12-29T13:24:06;11.10;99.90
25568;DHT22;13455;51.480;7.594;2022-12-29T13:26:44;11.10;99.90
25568;DHT22;13455;51.480;7.594;2022-12-29T13:37:16;11.00;99.90
25568;DHT22;13455;51.480;7.594;2022-12-29T13:39:50;11.00;99.90
25568;DHT22;13455;51.480;7.594;2022-12-29T13:42:18;10.90;99.90
25568;DHT22;13455;51.480;7.594;2022-12-29T13:47:31;11.00;99.90
25568;DHT22;13455;51.480;7.594;2022-12-29T13:50:01;10.90;99.90
25568;DHT22;13455;51.480;7.594;2022-12-29T13:56:06;10.90;99.90
25568;DHT22;13455;51.480;7.594;2022-12-29T14:01:27;11.00;99.90
25568;DHT22;13455;51.480;7.594;2022-12-29T14:03:58;10.80;99.90
25568;DHT22;13455;51.480;7.594;2022-12-29T14:06:27;10.90;99.90
25568;DHT22;13455;51.480;7.594;2022-12-29T14:09:05;11.20;99.90
25568;DHT22;13455;51.480;7.594;2022-12-29T14:11:36;10.90;99.90
25568;DHT22;13455;51.480;7.594;2022-12-29T14:14:17;10.10;99.90
25568;DHT22;13455;51.480;7.594;2022-12-29T14:16:44;10.80;99.90
25568;DHT22;13455;51.480;7.594;2022-12-29T14:19:13;11.00;99.90
25568;DHT22;13455;51.480;7.594;2022-12-29T14:21:40;10.90;99.90
25568;DHT22;13455;51.480;7.594;2022-12-29T14:26:53;10.90;99.90
25568;DHT22;13455;51.480;7.594;2022-12-29T14:31:52;10.90;99.90
25568;DHT22;13455;51.480;7.594;2022-12-29T14:39:46;10.90;99.90
25568;DHT22;13455;51.480;7.594;2022-12-29T14:42:14;10.90;99.90
25568;DHT22;13455;51.480;7.594;2022-12-29T14:45:06;11.00;99.90
25568;DHT22;13455;51.480;7.594;2022-12-29T14:47:34;10.80;99.90
25568;DHT22;13455;51.480;7.594;2022-12-29T14:58:43;10.80;99.90
25568;DHT22;13455;51.480;7.594;2022-12-29T15:01:26;10.80;99.90
25568;DHT22;13455;51.480;7.594;2022-12-29T15:04:00;10.90;99.90
25568;DHT22;13455;51.480;7.594;2022-12-29T15:06:30;10.70;99.90
25568;DHT22;13455;51.480;7.594;2022-12-29T15:11:53;10.80;99.90
25568;DHT22;13455;51.480;7.594;2022-12-29T15:16:54;10.70;99.90
25568;DHT22;13455;51.480;7.594;2022-12-29T15:19:24;10.70;99.90
25568;DHT22;13455;51.480;7.594;2022-12-29T15:21:50;10.70;99.90
25568;DHT22;13455;51.480;7.594;2022-12-29T15:24:17;10.60;99.90
25568;DHT22;13455;51.480;7.594;2022-12-29T15:26:46;10.70;99.90
25568;DHT22;13455;51.480;7.594;2022-12-29T15:29:38;10.60;99.90
25568;DHT22;13455;51.480;7.594;2022-12-29T15:32:18;10.60;99.90
25568;DHT22;13455;51.480;7.594;2022-12-29T15:34:45;10.60;99.90
25568;DHT22;13455;51.480;7.594;2022-12-29T15:37:18;10.60;99.90
25568;DHT22;13455;51.480;7.594;2022-12-29T15:39:44;10.50;99.90
25568;DHT22;13455;51.480;7.594;2022-12-29T15:45:33;10.50;99.90
25568;DHT22;13455;51.480;7.594;2022-12-29T15:48:00;10.70;99.90
25568;DHT22;13455;51.480;7.594;2022-12-29T15:50:32;10.80;99.90
25568;DHT22;13455;51.480;7.594;2022-12-29T15:52:59;10.50;99.90
25568;DHT22;13455;51.480;7.594;2022-12-29T15:55:37;10.50;99.90
25568;DHT22;13455;51.480;7.594;2022-12-29T15:58:20;10.90;99.90
25568;DHT22;13455;51.480;7.594;2022-12-29T16:00:52;10.40;99.90
25568;DHT22;13455;51.480;7.594;2022-12-29T16:03:18;10.40;99.90
25568;DHT22;13455;51.480;7.594;2022-12-29T16:08:40;10.40;99.90
25568;DHT22;13455;51.480;7.594;2022-12-29T16:11:26;10.80;99.90
25568;DHT22;13455;51.480;7.594;2022-12-29T16:13:54;10.30;99.90
25568;DHT22;13455;51.480;7.594;2022-12-29T16:18:50;10.60;99.90
25568;DHT22;13455;51.480;7.594;2022-12-29T16:21:32;10.60;99.90
25568;DHT22;13455;51.480;7.594;2022-12-29T16:24:04;10.30;99.90
25568;DHT22;13455;51.480;7.594;2022-12-29T16:26:31;10.50;99.90
25568;DHT22;13455;51.480;7.594;2022-12-29T16:28:59;10.40;99.90
25568;DHT22;13455;51.480;7.594;2022-12-29T16:39:36;10.30;99.90
25568;DHT22;13455;51.480;7.594;2022-12-29T16:45:22;10.30;99.90
25568;DHT22;13455;51.480;7.594;2022-12-29T16:50:34;10.20;99.90
25568;DHT22;13455;51.480;7.594;2022-12-29T16:53:01;10.20;99.90
25568;DHT22;13455;51.480;7.594;2022-12-29T16:55:28;10.10;99.90
25568;DHT22;13455;51.480;7.594;2022-12-29T16:57:55;10.10;99.90
25568;DHT22;13455;51.480;7.594;2022-12-29T17:00:27;10.00;99.90
25568;DHT22;13455;51.480;7.594;2022-12-29T17:02:56;10.20;99.90
25568;DHT22;13455;51.480;7.594;2022-12-29T17:05:23;10.00;99.90
25568;DHT22;13455;51.480;7.594;2022-12-29T17:07:49;10.00;99.90
25568;DHT22;13455;51.480;7.594;2022-12-29T17:10:16;10.00;99.90
25568;DHT22;13455;51.480;7.594;2022-12-29T17:12:43;10.00;99.90
25568;DHT22;13455;51.480;7.594;2022-12-29T17:15:29;10.00;99.90
25568;DHT22;13455;51.480;7.594;2022-12-29T17:17:59;9.90;99.90
25568;DHT22;13455;51.480;7.594;2022-12-29T17:20:27;9.90;99.90
25568;DHT22;13455;51.480;7.594;2022-12-29T17:22:54;9.90;99.90
25568;DHT22;13455;51.480;7.594;2022-12-29T17:25:23;9.80;99.90
25568;DHT22;13455;51.480;7.594;2022-12-29T17:28:09;9.90;99.90
25568;DHT22;13455;51.480;7.594;2022-12-29T17:30:39;9.90;99.90
25568;DHT22;13455;51.480;7.594;2022-12-29T17:33:07;9.90;99.90
25568;DHT22;13455;51.480;7.594;2022-12-29T17:35:35;9.90;99.90
25568;DHT22;13455;51.480;7.594;2022-12-29T17:38:00;9.90;99.90
25568;DHT22;13455;51.480;7.594;2022-12-29T17:40:28;9.90;99.90
25568;DHT22;13455;51.480;7.594;2022-12-29T17:42:56;9.90;99.90
25568;DHT22;13455;51.480;7.594;2022-12-29T17:45:24;10.00;99.90
25568;DHT22;13455;51.480;7.594;2022-12-29T17:47:50;10.00;99.90
25568;DHT22;13455;51.480;7.594;2022-12-29T17:50:18;9.90;99.90
25568;DHT22;13455;51.480;7.594;2022-12-29T17:52:51;9.90;99.90
25568;DHT22;13455;51.480;7.594;2022-12-29T17:55:20;9.90;99.90
25568;DHT22;13455;51.480;7.594;2022-12-29T17:57:46;9.90;99.90
25568;DHT22;13455;51.480;7.594;2022-12-29T18:02:41;9.80;99.90
25568;DHT22;13455;51.480;7.594;2022-12-29T18:05:20;9.80;99.90
25568;DHT22;13455;51.480;7.594;2022-12-29T18:07:46;9.70;99.90
25568;DHT22;13455;51.480;7.594;2022-12-29T18:10:13;9.70;99.90
25568;DHT22;13455;51.480;7.594;2022-12-29T18:12:50;9.70;99.90
25568;DHT22;13455;51.480;7.594;2022-12-29T18:20:12;9.50;99.90
25568;DHT22;13455;51.480;7.594;2022-12-29T18:22:38;9.40;99.90
25568;DHT22;13455;51.480;7.594;2022-12-29T18:30:16;9.40;99.90
25568;DHT22;13455;51.480;7.594;2022-12-29T18:32:41;9.40;99.90
25568;DHT22;13455;51.480;7.594;2022-12-29T18:35:36;9.30;99.90
25568;DHT22;13455;51.480;7.594;2022-12-29T18:38:02;9.30;99.90
25568;DHT22;13455;51.480;7.594;2022-12-29T18:42:56;9.10;99.90
25568;DHT22;13455;51.480;7.594;2022-12-29T18:45:22;8.90;99.90
25568;DHT22;13455;51.480;7.594;2022-12-29T18:47:48;9.00;99.90
25568;DHT22;13455;51.480;7.594;2022-12-29T18:50:15;8.90;99.90
25568;DHT22;13455;51.480;7.594;2022-12-29T18:52:42;8.80;99.90
25568;DHT22;13455;51.480;7.594;2022-12-29T18:57:40;8.60;99.90
25568;DHT22;13455;51.480;7.594;2022-12-29T19:09:51;8.30;99.90
25568;DHT22;13455;51.480;7.594;2022-12-29T19:12:17;8.30;99.90
25568;DHT22;13455;51.480;7.594;2022-12-29T19:14:43;8.30;99.90
25568;DHT22;13455;51.480;7.594;2022-12-29T19:17:11;8.20;99.90
25568;DHT22;13455;51.480;7.594;2022-12-29T19:19:36;8.30;99.90
25568;DHT22;13455;51.480;7.594;2022-12-29T19:22:02;8.50;99.90
25568;DHT22;13455;51.480;7.594;2022-12-29T19:24:28;8.40;99.90
25568;DHT22;13455;51.480;7.594;2022-12-29T19:26:53;8.10;99.90
25568;DHT22;13455;51.480;7.594;2022-12-29T19:29:19;8.30;99.90
25568;DHT22;13455;51.480;7.594;2022-12-29T19:31:54;8.00;99.90
25568;DHT22;13455;51.480;7.594;2022-12-29T19:34:20;7.90;99.90
25568;DHT22;13455;51.480;7.594;2022-12-29T19:36:46;7.90;99.90
25568;DHT22;13455;51.480;7.594;2022-12-29T19:39:11;7.90;99.90
25568;DHT22;13455;51.480;7.594;2022-12-29T19:41:37;7.80;99.90
25568;DHT22;13455;51.480;7.594;2022-12-29T19:44:03;7.90;99.90
25568;DHT22;13455;51.480;7.594;2022-12-29T19:46:28;8.20;99.90
25568;DHT22;13455;51.480;7.594;2022-12-29T19:48:54;7.80;99.90